sensor_id;sensor_type;location;lat;lon;timestamp;P1;durP1;ratioP1;P2;durP2;ratioP2
58972;SDS011;44750;52.040;7.472;2023-09-19T00:01:20;4.57;;;1.45;;
58972;SDS011;44750;52.040;7.472;2023-09-19T00:06:20;2.67;;;1.17;;
58972;SDS011;44750;52.040;7.472;2023-09-19T00:11:21;2.72;;;1.33;;
58972;SDS011;44750;52.040;7.472;2023-09-19T00:16:21;1.25;;;1.00;;
58972;SDS011;44750;52.040;7.472;2023-09-19T00:21:21;9.48;;;1.48;;
58972;SDS011;44750;52.040;7.472;2023-09-19T00:26:21;1.77;;;1.08;;
58972;SDS011;44750;52.040;7.472;2023-09-19T00:31:22;5.10;;;1.80;;
58972;SDS011;44750;52.040;7.472;2023-09-19T00:36:22;3.45;;;1.40;;
58972;SDS011;44750;52.040;7.472;2023-09-19T00:41:22;4.33;;;1.37;;
58972;SDS011;44750;52.040;7.472;2023-09-19T00:46:22;3.90;;;1.23;;
58972;SDS011;44750;52.040;7.472;2023-09-19T00:51:23;3.90;;;1.50;;
58972;SDS011;44750;52.040;7.472;2023-09-19T00:56:23;6.20;;;1.60;;
58972;SDS011;44750;52.040;7.472;2023-09-19T01:01:23;4.80;;;1.70;;
58972;SDS011;44750;52.040;7.472;2023-09-19T01:06:24;2.38;;;1.25;;
58972;SDS011;44750;52.040;7.472;2023-09-19T01:16:35;5.78;;;1.80;;
58972;SDS011;44750;52.040;7.472;2023-09-19T01:21:48;5.25;;;1.73;;
58972;SDS011;44750;52.040;7.472;2023-09-19T01:27:23;5.85;;;1.70;;
58972;SDS011;44750;52.040;7.472;2023-09-19T01:32:54;2.90;;;1.77;;
58972;SDS011;44750;52.040;7.472;2023-09-19T01:37:54;6.18;;;1.95;;
58972;SDS011;44750;52.040;7.472;2023-09-19T01:42:58;10.75;;;2.15;;
58972;SDS011;44750;52.040;7.472;2023-09-19T01:48:13;2.42;;;1.20;;
58972;SDS011;44750;52.040;7.472;2023-09-19T01:58:30;5.65;;;1.92;;
58972;SDS011;44750;52.040;7.472;2023-09-19T02:03:34;12.40;;;1.88;;
58972;SDS011;44750;52.040;7.472;2023-09-19T02:08:36;3.78;;;1.55;;
58972;SDS011;44750;52.040;7.472;2023-09-19T02:13:38;8.93;;;1.95;;
58972;SDS011;44750;52.040;7.472;2023-09-19T02:18:39;3.95;;;1.70;;
58972;SDS011;44750;52.040;7.472;2023-09-19T02:23:39;4.97;;;1.95;;
58972;SDS011;44750;52.040;7.472;2023-09-19T02:28:40;3.67;;;1.88;;
58972;SDS011;44750;52.040;7.472;2023-09-19T02:33:40;10.18;;;1.70;;
58972;SDS011;44750;52.040;7.472;2023-09-19T02:38:40;4.90;;;1.70;;
58972;SDS011;44750;52.040;7.472;2023-09-19T02:43:40;4.65;;;1.60;;
58972;SDS011;44750;52.040;7.472;2023-09-19T02:48:41;2.47;;;1.40;;
58972;SDS011;44750;52.040;7.472;2023-09-19T02:53:41;2.42;;;1.38;;
58972;SDS011;44750;52.040;7.472;2023-09-19T02:58:41;3.67;;;1.63;;
58972;SDS011;44750;52.040;7.472;2023-09-19T03:03:41;5.47;;;1.40;;
58972;SDS011;44750;52.040;7.472;2023-09-19T03:08:43;1.73;;;1.35;;
58972;SDS011;44750;52.040;7.472;2023-09-19T03:13:43;3.03;;;1.40;;
58972;SDS011;44750;52.040;7.472;2023-09-19T03:18:44;6.57;;;1.88;;
58972;SDS011;44750;52.040;7.472;2023-09-19T03:23:45;2.83;;;1.38;;
58972;SDS011;44750;52.040;7.472;2023-09-19T03:28:46;3.92;;;1.70;;
58972;SDS011;44750;52.040;7.472;2023-09-19T03:33:47;4.35;;;2.00;;
58972;SDS011;44750;52.040;7.472;2023-09-19T03:38:47;4.63;;;1.45;;
58972;SDS011;44750;52.040;7.472;2023-09-19T03:43:47;3.25;;;1.33;;
58972;SDS011;44750;52.040;7.472;2023-09-19T03:48:47;3.90;;;1.70;;
58972;SDS011;44750;52.040;7.472;2023-09-19T03:53:47;4.18;;;2.00;;
58972;SDS011;44750;52.040;7.472;2023-09-19T03:58:48;11.88;;;1.60;;
58972;SDS011;44750;52.040;7.472;2023-09-19T04:03:48;2.67;;;1.60;;
58972;SDS011;44750;52.040;7.472;2023-09-19T04:08:48;4.40;;;1.70;;
58972;SDS011;44750;52.040;7.472;2023-09-19T04:13:49;3.05;;;1.48;;
58972;SDS011;44750;52.040;7.472;2023-09-19T04:18:49;3.25;;;1.38;;
58972;SDS011;44750;52.040;7.472;2023-09-19T04:23:49;2.45;;;1.23;;
58972;SDS011;44750;52.040;7.472;2023-09-19T04:28:49;3.95;;;1.20;;
58972;SDS011;44750;52.040;7.472;2023-09-19T04:33:50;3.75;;;1.65;;
58972;SDS011;44750;52.040;7.472;2023-09-19T04:38:50;2.92;;;1.50;;
58972;SDS011;44750;52.040;7.472;2023-09-19T04:43:50;2.08;;;1.23;;
58972;SDS011;44750;52.040;7.472;2023-09-19T04:48:50;3.50;;;1.67;;
58972;SDS011;44750;52.040;7.472;2023-09-19T04:53:51;6.68;;;2.10;;
58972;SDS011;44750;52.040;7.472;2023-09-19T04:58:51;2.65;;;1.15;;
58972;SDS011;44750;52.040;7.472;2023-09-19T05:03:51;1.38;;;1.17;;
58972;SDS011;44750;52.040;7.472;2023-09-19T05:08:51;2.85;;;1.02;;
58972;SDS011;44750;52.040;7.472;2023-09-19T05:13:51;4.82;;;1.42;;
58972;SDS011;44750;52.040;7.472;2023-09-19T05:18:52;3.72;;;1.75;;
58972;SDS011;44750;52.040;7.472;2023-09-19T05:23:52;4.03;;;1.38;;
58972;SDS011;44750;52.040;7.472;2023-09-19T05:28:52;5.90;;;1.30;;
58972;SDS011;44750;52.040;7.472;2023-09-19T05:33:52;4.03;;;1.52;;
58972;SDS011;44750;52.040;7.472;2023-09-19T05:38:53;4.40;;;1.30;;
58972;SDS011;44750;52.040;7.472;2023-09-19T05:43:53;19.40;;;1.92;;
58972;SDS011;44750;52.040;7.472;2023-09-19T05:48:55;4.47;;;1.58;;
58972;SDS011;44750;52.040;7.472;2023-09-19T05:53:55;1.95;;;1.08;;
58972;SDS011;44750;52.040;7.472;2023-09-19T05:58:56;3.47;;;1.50;;
58972;SDS011;44750;52.040;7.472;2023-09-19T06:03:56;1.73;;;1.10;;
58972;SDS011;44750;52.040;7.472;2023-09-19T06:08:58;4.30;;;1.40;;
58972;SDS011;44750;52.040;7.472;2023-09-19T06:13:58;2.03;;;1.17;;
58972;SDS011;44750;52.040;7.472;2023-09-19T06:18:58;5.25;;;1.65;;
58972;SDS011;44750;52.040;7.472;2023-09-19T06:23:59;1.83;;;1.30;;
58972;SDS011;44750;52.040;7.472;2023-09-19T06:28:59;2.67;;;1.60;;
58972;SDS011;44750;52.040;7.472;2023-09-19T06:33:59;11.05;;;1.60;;
58972;SDS011;44750;52.040;7.472;2023-09-19T06:39:00;5.65;;;2.05;;
58972;SDS011;44750;52.040;7.472;2023-09-19T06:44:00;2.67;;;0.90;;
58972;SDS011;44750;52.040;7.472;2023-09-19T06:49:01;2.60;;;1.30;;
58972;SDS011;44750;52.040;7.472;2023-09-19T06:54:01;3.70;;;1.65;;
58972;SDS011;44750;52.040;7.472;2023-09-19T06:59:02;1.73;;;1.10;;
58972;SDS011;44750;52.040;7.472;2023-09-19T07:04:03;5.33;;;1.00;;
58972;SDS011;44750;52.040;7.472;2023-09-19T07:09:03;2.33;;;0.97;;
58972;SDS011;44750;52.040;7.472;2023-09-19T07:14:03;3.60;;;1.10;;
58972;SDS011;44750;52.040;7.472;2023-09-19T07:19:04;2.60;;;1.30;;
58972;SDS011;44750;52.040;7.472;2023-09-19T07:24:04;2.83;;;1.10;;
58972;SDS011;44750;52.040;7.472;2023-09-19T07:29:04;2.90;;;1.15;;
58972;SDS011;44750;52.040;7.472;2023-09-19T07:34:05;3.08;;;1.40;;
58972;SDS011;44750;52.040;7.472;2023-09-19T07:39:05;2.50;;;1.50;;
58972;SDS011;44750;52.040;7.472;2023-09-19T07:44:05;3.85;;;1.40;;
58972;SDS011;44750;52.040;7.472;2023-09-19T07:49:05;5.47;;;1.63;;
58972;SDS011;44750;52.040;7.472;2023-09-19T07:54:07;5.28;;;1.63;;
58972;SDS011;44750;52.040;7.472;2023-09-19T07:59:08;3.17;;;1.13;;
58972;SDS011;44750;52.040;7.472;2023-09-19T08:04:08;3.53;;;1.65;;
58972;SDS011;44750;52.040;7.472;2023-09-19T08:09:08;2.88;;;1.40;;
58972;SDS011;44750;52.040;7.472;2023-09-19T08:14:09;2.20;;;1.10;;
58972;SDS011;44750;52.040;7.472;2023-09-19T08:19:09;2.45;;;1.45;;
58972;SDS011;44750;52.040;7.472;2023-09-19T08:24:10;3.47;;;1.50;;
58972;SDS011;44750;52.040;7.472;2023-09-19T08:29:10;2.10;;;1.38;;
58972;SDS011;44750;52.040;7.472;2023-09-19T08:34:10;3.83;;;1.52;;
58972;SDS011;44750;52.040;7.472;2023-09-19T08:39:11;1.77;;;0.90;;
58972;SDS011;44750;52.040;7.472;2023-09-19T08:44:11;4.75;;;1.60;;
58972;SDS011;44750;52.040;7.472;2023-09-19T08:49:58;5.03;;;1.80;;
58972;SDS011;44750;52.040;7.472;2023-09-19T08:54:56;2.08;;;1.20;;
58972;SDS011;44750;52.040;7.472;2023-09-19T09:00:01;4.15;;;1.25;;
58972;SDS011;44750;52.040;7.472;2023-09-19T09:05:03;4.53;;;1.73;;
58972;SDS011;44750;52.040;7.472;2023-09-19T09:10:04;3.40;;;1.27;;
58972;SDS011;44750;52.040;7.472;2023-09-19T09:15:05;11.38;;;1.58;;
58972;SDS011;44750;52.040;7.472;2023-09-19T09:20:06;3.10;;;1.20;;
58972;SDS011;44750;52.040;7.472;2023-09-19T09:25:07;3.13;;;1.85;;
58972;SDS011;44750;52.040;7.472;2023-09-19T09:30:07;2.25;;;1.30;;
58972;SDS011;44750;52.040;7.472;2023-09-19T09:35:08;2.97;;;1.50;;
58972;SDS011;44750;52.040;7.472;2023-09-19T09:40:08;4.13;;;1.47;;
58972;SDS011;44750;52.040;7.472;2023-09-19T09:45:12;7.43;;;1.30;;
58972;SDS011;44750;52.040;7.472;2023-09-19T09:50:25;3.45;;;1.60;;
58972;SDS011;44750;52.040;7.472;2023-09-19T09:55:26;3.38;;;1.48;;
58972;SDS011;44750;52.040;7.472;2023-09-19T10:00:26;2.28;;;1.40;;
58972;SDS011;44750;52.040;7.472;2023-09-19T10:05:27;12.65;;;1.85;;
58972;SDS011;44750;52.040;7.472;2023-09-19T10:10:31;4.15;;;1.40;;
58972;SDS011;44750;52.040;7.472;2023-09-19T10:15:31;1.70;;;1.02;;
58972;SDS011;44750;52.040;7.472;2023-09-19T10:20:32;3.63;;;1.67;;
58972;SDS011;44750;52.040;7.472;2023-09-19T10:25:33;9.50;;;2.08;;
58972;SDS011;44750;52.040;7.472;2023-09-19T10:35:45;2.13;;;1.13;;
58972;SDS011;44750;52.040;7.472;2023-09-19T10:40:50;2.13;;;0.98;;
58972;SDS011;44750;52.040;7.472;2023-09-19T10:45:52;3.90;;;1.55;;
58972;SDS011;44750;52.040;7.472;2023-09-19T10:56:10;7.10;;;1.90;;
58972;SDS011;44750;52.040;7.472;2023-09-19T11:01:40;2.03;;;1.20;;
58972;SDS011;44750;52.040;7.472;2023-09-19T11:06:42;2.10;;;1.13;;
58972;SDS011;44750;52.040;7.472;2023-09-19T11:11:43;4.40;;;1.33;;
58972;SDS011;44750;52.040;7.472;2023-09-19T11:17:31;2.55;;;1.20;;
58972;SDS011;44750;52.040;7.472;2023-09-19T11:22:05;1.63;;;1.20;;
58972;SDS011;44750;52.040;7.472;2023-09-19T11:27:09;1.55;;;1.10;;
58972;SDS011;44750;52.040;7.472;2023-09-19T11:32:10;1.50;;;1.10;;
58972;SDS011;44750;52.040;7.472;2023-09-19T11:47:46;2.67;;;1.37;;
58972;SDS011;44750;52.040;7.472;2023-09-19T11:52:47;1.67;;;1.35;;
58972;SDS011;44750;52.040;7.472;2023-09-19T11:57:50;5.82;;;0.90;;
58972;SDS011;44750;52.040;7.472;2023-09-19T12:02:55;5.43;;;1.67;;
58972;SDS011;44750;52.040;7.472;2023-09-19T12:07:58;1.45;;;1.15;;
58972;SDS011;44750;52.040;7.472;2023-09-19T12:12:59;3.22;;;1.23;;
58972;SDS011;44750;52.040;7.472;2023-09-19T12:18:00;1.50;;;0.90;;
58972;SDS011;44750;52.040;7.472;2023-09-19T12:23:00;2.85;;;1.02;;
58972;SDS011;44750;52.040;7.472;2023-09-19T12:28:00;1.97;;;0.93;;
58972;SDS011;44750;52.040;7.472;2023-09-19T12:33:01;1.37;;;1.13;;
58972;SDS011;44750;52.040;7.472;2023-09-19T12:38:02;2.70;;;1.13;;
58972;SDS011;44750;52.040;7.472;2023-09-19T12:43:03;5.20;;;1.45;;
58972;SDS011;44750;52.040;7.472;2023-09-19T12:48:23;2.33;;;0.90;;
58972;SDS011;44750;52.040;7.472;2023-09-19T12:53:25;2.65;;;1.30;;
58972;SDS011;44750;52.040;7.472;2023-09-19T12:58:26;1.55;;;1.00;;
58972;SDS011;44750;52.040;7.472;2023-09-19T13:03:28;1.65;;;1.15;;
58972;SDS011;44750;52.040;7.472;2023-09-19T13:08:30;1.30;;;1.07;;
58972;SDS011;44750;52.040;7.472;2023-09-19T13:13:32;3.42;;;1.20;;
58972;SDS011;44750;52.040;7.472;2023-09-19T13:18:43;1.65;;;0.90;;
58972;SDS011;44750;52.040;7.472;2023-09-19T13:23:54;1.85;;;1.30;;
58972;SDS011;44750;52.040;7.472;2023-09-19T13:28:56;1.35;;;0.80;;
58972;SDS011;44750;52.040;7.472;2023-09-19T13:33:56;3.15;;;1.40;;
58972;SDS011;44750;52.040;7.472;2023-09-19T13:38:56;1.75;;;1.05;;
58972;SDS011;44750;52.040;7.472;2023-09-19T13:43:56;1.55;;;1.00;;
58972;SDS011;44750;52.040;7.472;2023-09-19T13:48:56;1.95;;;1.10;;
58972;SDS011;44750;52.040;7.472;2023-09-19T13:53:58;1.05;;;0.77;;
58972;SDS011;44750;52.040;7.472;2023-09-19T13:59:00;1.95;;;1.02;;
58972;SDS011;44750;52.040;7.472;2023-09-19T14:04:00;1.08;;;0.80;;
58972;SDS011;44750;52.040;7.472;2023-09-19T14:09:00;1.15;;;0.90;;
58972;SDS011;44750;52.040;7.472;2023-09-19T14:14:00;1.52;;;0.77;;
58972;SDS011;44750;52.040;7.472;2023-09-19T14:19:00;8.82;;;1.50;;
58972;SDS011;44750;52.040;7.472;2023-09-19T14:24:01;4.40;;;0.85;;
58972;SDS011;44750;52.040;7.472;2023-09-19T14:29:01;1.70;;;1.20;;
58972;SDS011;44750;52.040;7.472;2023-09-19T14:34:01;2.20;;;1.23;;
58972;SDS011;44750;52.040;7.472;2023-09-19T14:39:02;0.73;;;0.73;;
58972;SDS011;44750;52.040;7.472;2023-09-19T14:44:02;1.57;;;0.87;;
58972;SDS011;44750;52.040;7.472;2023-09-19T14:49:03;0.77;;;0.50;;
58972;SDS011;44750;52.040;7.472;2023-09-19T14:54:03;0.60;;;0.50;;
58972;SDS011;44750;52.040;7.472;2023-09-19T14:59:04;2.40;;;0.70;;
58972;SDS011;44750;52.040;7.472;2023-09-19T15:04:04;1.20;;;0.70;;
58972;SDS011;44750;52.040;7.472;2023-09-19T15:09:04;0.88;;;0.70;;
58972;SDS011;44750;52.040;7.472;2023-09-19T15:14:06;1.58;;;0.88;;
58972;SDS011;44750;52.040;7.472;2023-09-19T15:19:06;0.40;;;0.40;;
58972;SDS011;44750;52.040;7.472;2023-09-19T15:24:06;0.50;;;0.50;;
58972;SDS011;44750;52.040;7.472;2023-09-19T15:29:07;1.10;;;0.60;;
58972;SDS011;44750;52.040;7.472;2023-09-19T15:34:07;0.50;;;0.40;;
58972;SDS011;44750;52.040;7.472;2023-09-19T15:39:08;0.80;;;0.60;;
58972;SDS011;44750;52.040;7.472;2023-09-19T15:44:12;0.50;;;0.40;;
58972;SDS011;44750;52.040;7.472;2023-09-19T15:49:14;1.70;;;1.17;;
58972;SDS011;44750;52.040;7.472;2023-09-19T15:54:15;0.57;;;0.47;;
58972;SDS011;44750;52.040;7.472;2023-09-19T15:59:15;1.52;;;0.70;;
58972;SDS011;44750;52.040;7.472;2023-09-19T16:04:16;1.80;;;0.77;;
58972;SDS011;44750;52.040;7.472;2023-09-19T16:09:17;0.60;;;0.50;;
58972;SDS011;44750;52.040;7.472;2023-09-19T16:14:17;1.00;;;0.55;;
58972;SDS011;44750;52.040;7.472;2023-09-19T16:19:17;1.23;;;0.55;;
58972;SDS011;44750;52.040;7.472;2023-09-19T16:24:17;1.77;;;0.40;;
58972;SDS011;44750;52.040;7.472;2023-09-19T16:29:18;0.20;;;0.20;;
58972;SDS011;44750;52.040;7.472;2023-09-19T16:34:18;0.83;;;0.60;;
58972;SDS011;44750;52.040;7.472;2023-09-19T16:39:18;2.47;;;0.90;;
58972;SDS011;44750;52.040;7.472;2023-09-19T16:44:18;0.63;;;0.32;;
58972;SDS011;44750;52.040;7.472;2023-09-19T16:49:19;0.88;;;0.43;;
58972;SDS011;44750;52.040;7.472;2023-09-19T16:54:19;0.47;;;0.40;;
58972;SDS011;44750;52.040;7.472;2023-09-19T16:59:19;0.80;;;0.40;;
58972;SDS011;44750;52.040;7.472;2023-09-19T17:04:19;1.83;;;0.50;;
58972;SDS011;44750;52.040;7.472;2023-09-19T17:09:20;0.57;;;0.55;;
58972;SDS011;44750;52.040;7.472;2023-09-19T17:14:20;0.82;;;0.63;;
58972;SDS011;44750;52.040;7.472;2023-09-19T17:19:20;1.00;;;0.90;;
58972;SDS011;44750;52.040;7.472;2023-09-19T17:24:20;2.38;;;1.52;;
58972;SDS011;44750;52.040;7.472;2023-09-19T17:29:21;6.78;;;2.38;;
58972;SDS011;44750;52.040;7.472;2023-09-19T17:34:22;1.30;;;0.80;;
58972;SDS011;44750;52.040;7.472;2023-09-19T17:39:23;1.23;;;0.57;;
58972;SDS011;44750;52.040;7.472;2023-09-19T17:44:23;0.60;;;0.50;;
58972;SDS011;44750;52.040;7.472;2023-09-19T17:49:23;2.20;;;0.68;;
58972;SDS011;44750;52.040;7.472;2023-09-19T17:54:23;0.95;;;0.50;;
58972;SDS011;44750;52.040;7.472;2023-09-19T17:59:23;0.95;;;0.60;;
58972;SDS011;44750;52.040;7.472;2023-09-19T18:04:25;0.32;;;0.32;;
58972;SDS011;44750;52.040;7.472;2023-09-19T18:09:28;4.57;;;0.75;;
58972;SDS011;44750;52.040;7.472;2023-09-19T18:14:30;0.77;;;0.52;;
58972;SDS011;44750;52.040;7.472;2023-09-19T18:19:30;6.07;;;0.73;;
58972;SDS011;44750;52.040;7.472;2023-09-19T18:24:31;0.93;;;0.50;;
58972;SDS011;44750;52.040;7.472;2023-09-19T18:29:32;2.92;;;0.70;;
58972;SDS011;44750;52.040;7.472;2023-09-19T18:34:32;1.30;;;0.80;;
58972;SDS011;44750;52.040;7.472;2023-09-19T18:39:33;1.05;;;0.60;;
58972;SDS011;44750;52.040;7.472;2023-09-19T18:44:33;2.70;;;1.20;;
58972;SDS011;44750;52.040;7.472;2023-09-19T18:49:33;2.03;;;0.88;;
58972;SDS011;44750;52.040;7.472;2023-09-19T18:54:33;0.47;;;0.40;;
58972;SDS011;44750;52.040;7.472;2023-09-19T18:59:34;3.17;;;0.90;;
58972;SDS011;44750;52.040;7.472;2023-09-19T19:04:34;0.90;;;0.60;;
58972;SDS011;44750;52.040;7.472;2023-09-19T19:09:34;1.13;;;0.88;;
58972;SDS011;44750;52.040;7.472;2023-09-19T19:14:36;0.43;;;0.43;;
58972;SDS011;44750;52.040;7.472;2023-09-19T19:19:36;0.73;;;0.40;;
58972;SDS011;44750;52.040;7.472;2023-09-19T19:24:37;1.30;;;0.80;;
58972;SDS011;44750;52.040;7.472;2023-09-19T19:29:37;4.30;;;0.90;;
58972;SDS011;44750;52.040;7.472;2023-09-19T19:34:37;0.93;;;0.52;;
58972;SDS011;44750;52.040;7.472;2023-09-19T19:39:40;0.73;;;0.60;;
58972;SDS011;44750;52.040;7.472;2023-09-19T19:44:41;3.40;;;0.88;;
58972;SDS011;44750;52.040;7.472;2023-09-19T19:49:41;2.95;;;0.93;;
58972;SDS011;44750;52.040;7.472;2023-09-19T19:54:45;0.60;;;0.60;;
58972;SDS011;44750;52.040;7.472;2023-09-19T19:59:45;11.63;;;1.00;;
58972;SDS011;44750;52.040;7.472;2023-09-19T20:04:46;0.90;;;0.70;;
58972;SDS011;44750;52.040;7.472;2023-09-19T20:09:46;4.78;;;0.85;;
58972;SDS011;44750;52.040;7.472;2023-09-19T20:14:46;0.82;;;0.70;;
58972;SDS011;44750;52.040;7.472;2023-09-19T20:19:46;9.97;;;1.00;;
58972;SDS011;44750;52.040;7.472;2023-09-19T20:24:47;1.05;;;0.65;;
58972;SDS011;44750;52.040;7.472;2023-09-19T20:29:47;3.72;;;0.95;;
58972;SDS011;44750;52.040;7.472;2023-09-19T20:34:47;1.85;;;0.70;;
58972;SDS011;44750;52.040;7.472;2023-09-19T20:39:47;1.55;;;0.77;;
58972;SDS011;44750;52.040;7.472;2023-09-19T20:44:49;0.68;;;0.60;;
58972;SDS011;44750;52.040;7.472;2023-09-19T20:49:50;1.85;;;0.82;;
58972;SDS011;44750;52.040;7.472;2023-09-19T20:54:50;1.80;;;0.90;;
58972;SDS011;44750;52.040;7.472;2023-09-19T20:59:50;0.95;;;0.80;;
58972;SDS011;44750;52.040;7.472;2023-09-19T21:04:51;1.88;;;0.88;;
58972;SDS011;44750;52.040;7.472;2023-09-19T21:09:51;1.45;;;0.85;;
58972;SDS011;44750;52.040;7.472;2023-09-19T21:14:51;1.25;;;0.77;;
58972;SDS011;44750;52.040;7.472;2023-09-19T21:19:53;2.92;;;1.30;;
58972;SDS011;44750;52.040;7.472;2023-09-19T21:24:53;2.15;;;0.95;;
58972;SDS011;44750;52.040;7.472;2023-09-19T21:29:54;1.58;;;0.70;;
58972;SDS011;44750;52.040;7.472;2023-09-19T21:34:55;1.80;;;0.98;;
58972;SDS011;44750;52.040;7.472;2023-09-19T21:39:56;1.35;;;0.75;;
58972;SDS011;44750;52.040;7.472;2023-09-19T21:44:56;2.45;;;1.10;;
58972;SDS011;44750;52.040;7.472;2023-09-19T21:49:56;0.95;;;0.52;;
58972;SDS011;44750;52.040;7.472;2023-09-19T21:54:58;1.50;;;0.73;;
58972;SDS011;44750;52.040;7.472;2023-09-19T21:59:58;0.63;;;0.60;;
58972;SDS011;44750;52.040;7.472;2023-09-19T22:04:58;1.50;;;0.85;;
58972;SDS011;44750;52.040;7.472;2023-09-19T22:09:58;0.88;;;0.60;;
58972;SDS011;44750;52.040;7.472;2023-09-19T22:14:59;1.45;;;0.80;;
58972;SDS011;44750;52.040;7.472;2023-09-19T22:19:59;0.80;;;0.55;;
58972;SDS011;44750;52.040;7.472;2023-09-19T22:24:59;1.35;;;0.80;;
58972;SDS011;44750;52.040;7.472;2023-09-19T22:30:00;1.00;;;0.63;;
58972;SDS011;44750;52.040;7.472;2023-09-19T22:35:00;8.33;;;1.10;;
58972;SDS011;44750;52.040;7.472;2023-09-19T22:40:00;1.00;;;0.88;;
58972;SDS011;44750;52.040;7.472;2023-09-19T22:45:01;1.70;;;0.93;;
58972;SDS011;44750;52.040;7.472;2023-09-19T22:50:01;3.25;;;0.98;;
58972;SDS011;44750;52.040;7.472;2023-09-19T22:55:03;3.95;;;1.10;;
58972;SDS011;44750;52.040;7.472;2023-09-19T23:00:03;5.60;;;1.48;;
58972;SDS011;44750;52.040;7.472;2023-09-19T23:05:04;1.27;;;0.80;;
58972;SDS011;44750;52.040;7.472;2023-09-19T23:10:05;1.67;;;0.90;;
58972;SDS011;44750;52.040;7.472;2023-09-19T23:15:05;0.70;;;0.68;;
58972;SDS011;44750;52.040;7.472;2023-09-19T23:20:06;2.17;;;1.30;;
58972;SDS011;44750;52.040;7.472;2023-09-19T23:25:08;22.15;;;1.23;;
58972;SDS011;44750;52.040;7.472;2023-09-19T23:30:08;0.98;;;0.88;;
58972;SDS011;44750;52.040;7.472;2023-09-19T23:35:09;1.27;;;0.85;;
58972;SDS011;44750;52.040;7.472;2023-09-19T23:40:09;1.30;;;0.77;;
58972;SDS011;44750;52.040;7.472;2023-09-19T23:45:09;2.42;;;0.85;;
58972;SDS011;44750;52.040;7.472;2023-09-19T23:50:10;2.25;;;1.00;;
58972;SDS011;44750;52.040;7.472;2023-09-19T23:55:10;0.80;;;0.70;;
